createdAt,value
2018-11-21T00:00:13.955Z,53.87
2018-11-21T00:02:43.997Z,50.00
2018-11-21T00:05:12.978Z,50.43
2018-11-21T00:07:41.979Z,47.77
2018-11-21T00:10:12.233Z,48.07
2018-11-21T00:12:43.616Z,54.13
2018-11-21T00:15:12.730Z,49.40
2018-11-21T00:17:41.723Z,48.97
2018-11-21T00:20:11.244Z,46.77
2018-11-21T00:22:40.308Z,53.70
2018-11-21T00:25:09.555Z,49.73
2018-11-21T00:27:38.662Z,50.00
2018-11-21T00:30:09.740Z,57.27
2018-11-21T00:32:38.726Z,48.33
2018-11-21T00:35:08.718Z,52.03
2018-11-21T00:37:38.889Z,47.43
2018-11-21T00:40:12.662Z,47.90
2018-11-21T00:42:46.736Z,53.43
2018-11-21T00:45:11.108Z,48.27
2018-11-21T00:47:40.360Z,49.93
2018-11-21T00:50:09.398Z,53.93
2018-11-21T00:52:38.514Z,47.50
2018-11-21T00:55:07.832Z,48.97
2018-11-21T00:57:36.834Z,47.73
2018-11-21T01:00:08.293Z,49.33
2018-11-21T01:02:37.345Z,48.90
2018-11-21T01:05:06.978Z,50.60
2018-11-21T01:07:35.982Z,51.43
2018-11-21T01:10:05.046Z,52.30
2018-11-21T01:12:34.090Z,52.23
2018-11-21T01:15:03.134Z,46.00
2018-11-21T01:17:32.158Z,52.40
2018-11-21T01:20:01.162Z,53.33
2018-11-21T01:22:30.161Z,48.97
2018-11-21T01:24:59.130Z,50.20
2018-11-21T01:27:28.175Z,49.57
2018-11-21T01:29:57.268Z,52.27
2018-11-21T01:32:26.262Z,49.50
2018-11-21T01:34:55.344Z,51.00
2018-11-21T01:37:24.432Z,50.77
2018-11-21T01:39:53.473Z,46.97
2018-11-21T01:42:22.527Z,50.97
2018-11-21T01:44:51.543Z,47.83
2018-11-21T01:47:20.619Z,49.20
2018-11-21T01:49:49.588Z,51.73
2018-11-21T01:52:18.623Z,51.00
2018-11-21T01:54:47.741Z,49.53
2018-11-21T01:57:16.801Z,46.73
2018-11-21T01:59:45.798Z,51.40
2018-11-21T02:02:14.909Z,49.10
2018-11-21T02:04:43.943Z,49.87
2018-11-21T02:07:13.003Z,47.50
2018-11-21T02:09:42.100Z,51.00
2018-11-21T02:12:11.178Z,48.63
2018-11-21T02:14:40.255Z,51.07
2018-11-21T02:17:09.361Z,51.83
2018-11-21T02:19:38.346Z,48.10
2018-11-21T02:22:07.359Z,48.93
2018-11-21T02:24:36.483Z,46.77
2018-11-21T02:27:05.607Z,47.07
2018-11-21T02:29:34.735Z,51.27
2018-11-21T02:32:04.134Z,52.50
2018-11-21T02:34:33.193Z,50.00
2018-11-21T02:37:02.207Z,47.07
2018-11-21T02:39:31.185Z,48.20
2018-11-21T02:42:00.195Z,49.10
2018-11-21T02:44:29.204Z,51.67
2018-11-21T02:46:58.315Z,50.87
2018-11-21T02:49:27.321Z,65.13
2018-11-21T02:51:56.330Z,50.90
2018-11-21T02:54:25.375Z,50.63
2018-11-21T02:57:38.125Z,48.97
2018-11-21T03:00:18.707Z,47.47
2018-11-21T03:02:47.782Z,49.33
2018-11-21T03:05:17.079Z,52.07
2018-11-21T03:07:52.952Z,47.60
2018-11-21T03:10:22.873Z,46.77
2018-11-21T03:12:51.912Z,44.47
2018-11-21T03:15:20.981Z,46.43
2018-11-21T03:17:49.999Z,53.03
2018-11-21T03:20:19.161Z,52.30
2018-11-21T03:22:48.288Z,49.90
2018-11-21T03:25:17.395Z,54.47
2018-11-21T03:27:46.477Z,55.03
2018-11-21T03:30:15.483Z,47.10
2018-11-21T03:32:44.664Z,52.50
2018-11-21T03:35:13.608Z,51.00
2018-11-21T03:37:42.707Z,50.50
2018-11-21T03:40:12.445Z,48.20
2018-11-21T03:42:41.639Z,50.67
2018-11-21T03:45:11.684Z,48.57
2018-11-21T03:47:41.007Z,49.33
2018-11-21T03:50:11.262Z,48.57
2018-11-21T03:52:40.270Z,52.37
2018-11-21T03:55:09.810Z,49.30
2018-11-21T03:57:38.971Z,53.17
2018-11-21T04:00:09.685Z,48.33
2018-11-21T04:02:38.821Z,46.70
2018-11-21T04:05:08.276Z,50.67
2018-11-21T04:07:37.494Z,49.57
2018-11-21T04:10:09.536Z,45.93
2018-11-21T04:12:38.695Z,50.17
2018-11-21T04:15:09.312Z,52.07
2018-11-21T04:17:38.519Z,55.30
2018-11-21T04:20:07.682Z,46.60
2018-11-21T04:22:36.958Z,53.23
2018-11-21T04:25:06.788Z,51.27
2018-11-21T04:27:35.827Z,51.10
2018-11-21T04:30:06.570Z,50.13
2018-11-21T04:32:35.526Z,51.23
2018-11-21T04:35:04.946Z,52.70
2018-11-21T04:37:33.930Z,48.17
2018-11-21T04:40:03.000Z,47.77
2018-11-21T04:42:32.057Z,48.37
2018-11-21T04:45:01.051Z,49.73
2018-11-21T04:47:30.122Z,54.07
2018-11-21T04:49:59.253Z,49.40
2018-11-21T04:52:28.227Z,50.33
2018-11-21T04:54:57.305Z,51.77
2018-11-21T04:57:26.336Z,49.70
2018-11-21T04:59:55.378Z,50.47
2018-11-21T05:02:24.454Z,46.47
2018-11-21T05:04:53.494Z,52.67
2018-11-21T05:07:22.604Z,49.07
2018-11-21T05:09:51.596Z,52.67
2018-11-21T05:12:20.703Z,49.87
2018-11-21T05:14:49.698Z,49.93
2018-11-21T05:17:18.685Z,54.30
2018-11-21T05:19:47.697Z,50.13
2018-11-21T05:22:16.680Z,58.90
2018-11-21T05:24:45.769Z,48.37
2018-11-21T05:27:14.844Z,53.50
2018-11-21T05:29:44.057Z,53.70
2018-11-21T05:32:13.165Z,53.67
2018-11-21T05:34:42.221Z,55.27
2018-11-21T05:37:11.345Z,55.27
2018-11-21T05:39:40.485Z,54.43
2018-11-21T05:42:09.616Z,59.30
2018-11-21T05:44:38.684Z,60.23
2018-11-21T05:47:07.783Z,65.60
2018-11-21T05:49:36.921Z,62.57
2018-11-21T05:52:06.038Z,61.53
2018-11-21T05:54:35.022Z,62.33
2018-11-21T05:57:04.100Z,59.10
2018-11-21T05:59:33.194Z,64.07
2018-11-21T06:02:02.268Z,60.17
2018-11-21T06:04:31.364Z,57.97
2018-11-21T06:07:00.493Z,61.63
2018-11-21T06:09:29.521Z,65.07
2018-11-21T06:12:04.141Z,59.73
2018-11-21T06:14:27.770Z,59.13
2018-11-21T06:16:56.873Z,57.27
2018-11-21T06:19:25.887Z,68.27
2018-11-21T06:21:54.952Z,57.17
2018-11-21T06:24:26.021Z,62.10
2018-11-21T06:26:56.888Z,63.63
2018-11-21T06:29:26.021Z,61.53
2018-11-21T06:31:55.061Z,58.27
2018-11-21T06:34:24.071Z,62.33
2018-11-21T06:36:53.182Z,61.30
2018-11-21T06:39:22.589Z,56.63
2018-11-21T06:41:51.725Z,64.40
2018-11-21T06:44:20.725Z,68.87
2018-11-21T06:46:49.807Z,71.63
2018-11-21T06:49:18.846Z,91.70
2018-11-21T06:51:47.954Z,71.63
2018-11-21T06:54:17.015Z,72.17
2018-11-21T06:56:46.048Z,84.70
2018-11-21T06:59:15.131Z,81.63
2018-11-21T07:01:44.222Z,76.87
2018-11-21T07:04:13.332Z,80.33
2018-11-21T07:06:42.479Z,69.37
2018-11-21T07:09:11.887Z,74.47
2018-11-21T07:11:40.901Z,77.07
2018-11-21T07:14:09.990Z,78.43
2018-11-21T07:16:39.811Z,83.47
2018-11-21T07:19:08.924Z,83.33
2018-11-21T07:21:37.986Z,71.87
2018-11-21T07:24:07.191Z,71.50
2018-11-21T07:26:36.280Z,70.00
2018-11-21T07:29:05.835Z,69.93
2018-11-21T07:31:35.081Z,74.40
2018-11-21T07:34:04.127Z,74.30
2018-11-21T07:36:33.602Z,79.10
2018-11-21T07:39:02.741Z,73.93
2018-11-21T07:41:31.772Z,82.53
2018-11-21T07:44:00.772Z,86.80
2018-11-21T07:46:29.904Z,92.60
2018-11-21T07:48:58.911Z,86.20
2018-11-21T07:51:27.990Z,76.23
2018-11-21T07:53:57.013Z,79.60
2018-11-21T07:57:17.088Z,79.20
2018-11-21T08:00:22.651Z,66.50
2018-11-21T08:02:51.678Z,61.43
2018-11-21T08:05:25.314Z,59.57
2018-11-21T08:08:03.551Z,59.47
2018-11-21T08:10:49.706Z,63.60
2018-11-21T08:13:36.423Z,62.30
2018-11-21T08:16:23.581Z,59.90
2018-11-21T08:19:14.712Z,57.20
2018-11-21T08:22:14.796Z,56.43
2018-11-21T08:25:05.770Z,61.30
2018-11-21T08:27:52.616Z,60.33
2018-11-21T08:30:21.714Z,59.13
2018-11-21T08:32:50.778Z,56.27
2018-11-21T08:35:19.894Z,58.80
2018-11-21T08:37:48.957Z,54.67
2018-11-21T08:40:18.022Z,54.10
2018-11-21T08:42:47.039Z,60.23
2018-11-21T08:45:16.060Z,57.07
2018-11-21T08:47:45.142Z,57.37
2018-11-21T08:50:14.210Z,54.80
2018-11-21T08:52:43.236Z,56.17
2018-11-21T08:55:12.864Z,56.70
2018-11-21T08:57:41.954Z,54.13
2018-11-21T09:00:12.434Z,54.50
2018-11-21T09:02:41.602Z,52.87
2018-11-21T09:05:11.595Z,51.57
2018-11-21T09:07:41.560Z,60.87
2018-11-21T09:10:12.406Z,52.57
2018-11-21T09:12:41.748Z,54.40
2018-11-21T09:15:13.306Z,59.73
2018-11-21T09:17:42.927Z,56.63
2018-11-21T09:20:12.337Z,53.73
2018-11-21T09:22:41.393Z,54.13
2018-11-21T09:25:11.069Z,60.50
2018-11-21T09:27:40.722Z,52.27
2018-11-21T09:30:11.259Z,55.00
2018-11-21T09:32:40.455Z,62.63
2018-11-21T09:35:11.033Z,57.10
2018-11-21T09:37:40.083Z,53.93
2018-11-21T09:40:10.659Z,55.33
2018-11-21T09:42:40.775Z,54.90
2018-11-21T09:45:11.459Z,54.43
2018-11-21T09:47:40.562Z,57.77
2018-11-21T09:50:11.951Z,60.17
2018-11-21T09:52:41.113Z,53.77
2018-11-21T09:55:10.233Z,52.20
2018-11-21T09:57:39.426Z,51.53
2018-11-21T10:00:46.607Z,63.30
2018-11-21T10:03:17.518Z,62.00
2018-11-21T10:05:48.961Z,58.73
2018-11-21T10:08:31.497Z,61.80
2018-11-21T10:11:00.498Z,61.13
2018-11-21T10:13:29.737Z,64.27
2018-11-21T10:16:01.005Z,64.57
2018-11-21T10:18:27.934Z,56.10
2018-11-21T10:20:57.029Z,61.00
2018-11-21T10:23:26.099Z,65.73
2018-11-21T10:25:55.111Z,65.07
2018-11-21T10:28:24.175Z,61.43
2018-11-21T10:30:53.163Z,66.73
2018-11-21T10:33:22.140Z,60.37
2018-11-21T10:35:51.135Z,62.13
2018-11-21T10:38:20.150Z,59.47
2018-11-21T10:40:49.244Z,56.23
2018-11-21T10:43:18.235Z,58.60
2018-11-21T10:45:47.276Z,58.87
2018-11-21T10:48:16.246Z,57.47
2018-11-21T10:50:45.242Z,58.63
2018-11-21T10:53:14.374Z,56.90
2018-11-21T10:55:43.358Z,61.60
2018-11-21T10:58:12.460Z,57.93
2018-11-21T11:00:59.210Z,59.27
2018-11-21T11:03:33.455Z,56.13
2018-11-21T11:06:33.686Z,56.23
2018-11-21T11:09:20.382Z,52.90
2018-11-21T11:12:01.808Z,56.60
2018-11-21T11:14:48.424Z,53.23
2018-11-21T11:17:36.610Z,57.33
2018-11-21T11:20:26.183Z,53.00
2018-11-21T11:23:13.007Z,54.87
2018-11-21T11:26:01.292Z,51.93
2018-11-21T11:28:58.474Z,54.43
2018-11-21T11:31:38.714Z,50.10
2018-11-21T11:34:23.006Z,50.10
2018-11-21T11:37:26.150Z,53.73
2018-11-21T11:40:12.979Z,51.27
2018-11-21T11:43:04.078Z,54.40
2018-11-21T11:45:52.282Z,54.90
2018-11-21T11:48:39.680Z,52.10
2018-11-21T11:51:42.953Z,50.30
2018-11-21T11:54:33.871Z,52.03
2018-11-21T11:57:31.046Z,54.83
2018-11-21T12:03:06.169Z,50.97
2018-11-21T12:06:03.337Z,50.83
2018-11-21T12:08:49.163Z,50.40
2018-11-21T12:11:35.823Z,53.87
2018-11-21T12:14:39.123Z,50.87
2018-11-21T12:17:26.071Z,51.83
2018-11-21T12:20:26.115Z,52.27
2018-11-21T12:23:29.234Z,45.97
2018-11-21T12:26:15.903Z,55.77
2018-11-21T12:29:02.774Z,50.17
2018-11-21T12:31:49.376Z,50.03
2018-11-21T12:34:35.825Z,52.53
2018-11-21T12:37:42.081Z,48.70
2018-11-21T12:40:27.741Z,53.93
2018-11-21T12:43:14.655Z,49.63
2018-11-21T12:46:20.894Z,52.90
2018-11-21T12:48:59.311Z,51.37
2018-11-21T12:51:56.316Z,51.13
2018-11-21T12:54:37.012Z,48.17
2018-11-21T12:57:23.650Z,48.90
2018-11-21T13:00:11.548Z,47.40
2018-11-21T13:03:05.559Z,47.93
2018-11-21T13:05:53.286Z,50.73
2018-11-21T13:08:31.188Z,47.40
2018-11-21T13:11:28.442Z,45.87
2018-11-21T13:14:14.808Z,49.13
2018-11-21T13:16:55.237Z,49.30
2018-11-21T13:19:45.275Z,45.53
2018-11-21T13:22:31.810Z,47.50
2018-11-21T13:25:18.819Z,50.10
2018-11-21T13:28:25.185Z,46.93
2018-11-21T13:31:10.519Z,45.37
2018-11-21T13:33:52.338Z,45.00
2018-11-21T13:36:38.954Z,45.57
2018-11-21T13:39:30.349Z,46.03
2018-11-21T13:42:24.521Z,50.43
2018-11-21T13:44:58.900Z,46.70
2018-11-21T13:47:45.514Z,54.67
2018-11-21T13:50:34.248Z,52.87
2018-11-21T13:53:15.924Z,49.57
2018-11-21T13:55:45.169Z,46.47
2018-11-21T13:58:14.188Z,47.60
2018-11-21T14:00:43.196Z,49.67
2018-11-21T14:03:12.250Z,49.57
2018-11-21T14:05:41.306Z,47.03
2018-11-21T14:08:10.442Z,46.23
2018-11-21T14:10:39.522Z,49.97
2018-11-21T14:13:08.546Z,50.73
2018-11-21T14:15:37.528Z,55.00
2018-11-21T14:18:06.694Z,51.97
2018-11-21T14:20:35.812Z,53.00
2018-11-21T14:23:05.121Z,46.33
2018-11-21T14:25:34.183Z,49.47
2018-11-21T14:28:03.216Z,45.73
2018-11-21T14:30:32.306Z,51.50
2018-11-21T14:33:01.290Z,49.67
2018-11-21T14:35:30.356Z,51.00
2018-11-21T14:37:59.338Z,50.70
2018-11-21T14:40:28.457Z,53.20
2018-11-21T14:42:57.531Z,52.70
2018-11-21T14:45:26.542Z,51.07
2018-11-21T14:47:55.678Z,54.03
2018-11-21T14:50:29.672Z,56.33
2018-11-21T14:52:58.780Z,52.97
2018-11-21T14:55:27.816Z,53.97
2018-11-21T14:57:56.979Z,56.00
2018-11-21T15:00:25.973Z,53.67
2018-11-21T15:02:55.016Z,57.20
2018-11-21T15:05:24.133Z,56.07
2018-11-21T15:07:53.433Z,55.93
2018-11-21T15:10:22.539Z,58.90
2018-11-21T15:12:51.567Z,57.83
2018-11-21T15:15:21.268Z,56.03
2018-11-21T15:17:50.297Z,53.97
2018-11-21T15:20:21.371Z,59.93
2018-11-21T15:22:50.404Z,64.30
2018-11-21T15:25:20.751Z,62.37
2018-11-21T15:27:49.945Z,58.43
2018-11-21T15:30:21.675Z,56.90
2018-11-21T15:32:50.633Z,65.83
2018-11-21T15:35:19.883Z,58.23
2018-11-21T15:37:49.031Z,60.47
2018-11-21T15:40:19.719Z,62.87
2018-11-21T15:42:48.801Z,58.43
2018-11-21T15:45:19.192Z,57.23
2018-11-21T15:47:50.693Z,66.10
2018-11-21T15:50:19.665Z,59.87
2018-11-21T15:52:53.131Z,61.57
2018-11-21T15:55:18.243Z,59.17
2018-11-21T15:57:48.371Z,63.13
2018-11-21T16:00:22.925Z,66.10
2018-11-21T16:02:53.811Z,60.83
2018-11-21T16:05:23.005Z,62.83
2018-11-21T16:07:52.235Z,61.43
2018-11-21T16:10:23.191Z,62.97
2018-11-21T16:12:52.223Z,61.43
2018-11-21T16:15:23.936Z,65.50
2018-11-21T16:17:53.073Z,65.03
2018-11-21T16:20:22.144Z,73.27
2018-11-21T16:22:51.343Z,65.97
2018-11-21T16:25:21.436Z,67.77
2018-11-21T16:27:50.426Z,61.13
2018-11-21T16:30:21.230Z,60.37
2018-11-21T16:32:50.301Z,56.57
2018-11-21T16:35:19.382Z,56.00
2018-11-21T16:37:48.479Z,61.80
2018-11-21T16:40:22.019Z,62.00
2018-11-21T16:42:51.619Z,63.40
2018-11-21T16:45:22.726Z,60.90
2018-11-21T16:47:51.754Z,65.60
2018-11-21T16:50:21.037Z,63.47
2018-11-21T16:52:50.155Z,61.83
2018-11-21T16:55:20.599Z,67.80
2018-11-21T16:57:50.044Z,58.50
2018-11-21T17:00:20.542Z,64.33
2018-11-21T17:02:49.588Z,60.47
2018-11-21T17:05:19.716Z,57.30
2018-11-21T17:07:48.810Z,62.43
2018-11-21T17:10:19.494Z,67.57
2018-11-21T17:12:48.982Z,59.87
2018-11-21T17:15:19.432Z,63.93
2018-11-21T17:17:48.646Z,65.20
2018-11-21T17:20:19.450Z,66.30
2018-11-21T17:22:49.775Z,64.13
2018-11-21T17:25:20.081Z,64.13
2018-11-21T17:27:49.396Z,66.17
2018-11-21T17:30:19.570Z,64.67
2018-11-21T17:32:48.814Z,65.33
2018-11-21T17:35:18.702Z,62.33
2018-11-21T17:37:48.062Z,63.80
2018-11-21T17:40:19.912Z,65.10
2018-11-21T17:42:48.986Z,66.10
2018-11-21T17:45:18.563Z,60.17
2018-11-21T17:47:47.617Z,67.40
2018-11-21T17:50:18.130Z,67.03
2018-11-21T17:52:47.795Z,65.33
2018-11-21T17:55:18.819Z,68.43
2018-11-21T17:57:47.894Z,66.97
2018-11-21T18:00:18.988Z,61.63
2018-11-21T18:02:47.985Z,71.30
2018-11-21T18:05:18.564Z,63.23
2018-11-21T18:07:47.763Z,65.93
2018-11-21T18:10:18.130Z,62.13
2018-11-21T18:12:47.609Z,67.17
2018-11-21T18:15:17.326Z,63.27
2018-11-21T18:17:47.371Z,57.83
2018-11-21T18:20:16.773Z,68.30
2018-11-21T18:22:46.522Z,65.00
2018-11-21T18:25:17.143Z,65.50
2018-11-21T18:27:46.321Z,58.33
2018-11-21T18:30:17.007Z,65.70
2018-11-21T18:32:46.529Z,71.17
2018-11-21T18:35:17.099Z,61.50
2018-11-21T18:37:46.497Z,64.13
2018-11-21T18:40:23.215Z,64.43
2018-11-21T18:42:52.416Z,66.00
